Time;durP1;ratioP1;P1;durP2;ratioP2;P2;SDS_P1;SDS_P2;PMS_P1;PMS_P2;Temp;Humidity;BMP_temperature;BMP_pressure;BME280_temperature;BME280_humidity;BME280_pressure;Samples;Min_cycle;Max_cycle;Signal;HPM_P1;HPM_P2
2022/03/26 00:01:04;;;;;;;21.20;13.17;;;;;;;;;;5105108;28;20233;-75
2022/03/26 00:03:33;;;;;;;25.57;13.33;;;;;;;;;;5105977;28;20220;-75
2022/03/26 00:06:05;;;;;;;24.00;13.00;;;;;;;;;;5109229;28;20590;-75
2022/03/26 00:08:33;;;;;;;20.80;13.73;;;;;;;;;;5102371;28;20308;-75
2022/03/26 00:11:01;;;;;;;22.20;12.90;;;;;;;;;;5110819;28;20267;-75
2022/03/26 00:13:29;;;;;;;21.57;13.20;;;;;;;;;;5104143;28;20603;-75
2022/03/26 00:15:57;;;;;;;23.03;12.80;;;;;;;;;;5114222;28;20252;-75
2022/03/26 00:18:25;;;;;;;20.77;12.93;;;;;;;;;;5114474;28;20208;-75
2022/03/26 00:20:53;;;;;;;19.00;12.40;;;;;;;;;;5105998;28;20230;-75
2022/03/26 00:23:23;;;;;;;22.30;13.33;;;;;;;;;;5113658;28;20636;-75
2022/03/26 00:25:51;;;;;;;22.20;12.03;;;;;;;;;;5111129;28;20344;-76
2022/03/26 00:28:19;;;;;;;25.23;13.53;;;;;;;;;;5116821;28;20307;-75
2022/03/26 00:30:47;;;;;;;22.90;13.27;;;;;;;;;;5108819;28;20323;-76
2022/03/26 00:33:15;;;;;;;22.03;12.57;;;;;;;;;;5115911;27;20232;-75
2022/03/26 00:35:43;;;;;;;25.10;13.53;;;;;;;;;;5115189;28;20246;-75
2022/03/26 00:38:11;;;;;;;26.13;14.03;;;;;;;;;;5115928;28;20292;-75
2022/03/26 00:40:41;;;;;;;20.70;13.17;;;;;;;;;;5114381;28;20610;-75
2022/03/26 00:43:09;;;;;;;23.53;12.67;;;;;;;;;;5115580;28;20293;-75
2022/03/26 00:45:37;;;;;;;22.27;12.87;;;;;;;;;;5115720;28;20776;-75
2022/03/26 00:48:06;;;;;;;21.63;12.73;;;;;;;;;;5116766;28;20221;-75
2022/03/26 00:50:34;;;;;;;20.00;11.83;;;;;;;;;;5117985;28;20280;-75
2022/03/26 00:53:02;;;;;;;23.17;13.47;;;;;;;;;;5115473;28;20663;-75
2022/03/26 00:55:30;;;;;;;25.00;14.00;;;;;;;;;;5115740;28;20303;-75
2022/03/26 00:57:59;;;;;;;28.70;13.50;;;;;;;;;;5117400;28;20221;-75
2022/03/26 01:00:28;;;;;;;21.63;12.97;;;;;;;;;;5115027;28;20724;-75
2022/03/26 01:02:56;;;;;;;23.03;12.60;;;;;;;;;;5117964;28;20330;-76
2022/03/26 01:05:24;;;;;;;28.47;13.97;;;;;;;;;;5115181;28;20270;-75
2022/03/26 01:07:52;;;;;;;23.80;13.20;;;;;;;;;;5112256;28;20240;-75
2022/03/26 01:10:20;;;;;;;21.00;12.53;;;;;;;;;;5117149;28;20646;-76
2022/03/26 01:12:49;;;;;;;21.30;13.23;;;;;;;;;;5115621;28;20201;-76
2022/03/26 01:15:18;;;;;;;22.57;12.53;;;;;;;;;;5113401;28;20315;-75
2022/03/26 01:17:46;;;;;;;22.70;12.80;;;;;;;;;;5114504;28;20221;-75
2022/03/26 01:20:16;;;;;;;25.37;14.00;;;;;;;;;;5114496;28;20220;-75
2022/03/26 01:22:45;;;;;;;24.67;13.50;;;;;;;;;;5112863;28;20232;-75
2022/03/26 01:25:13;;;;;;;22.13;14.00;;;;;;;;;;5112555;28;20273;-75
2022/03/26 01:27:41;;;;;;;23.90;14.03;;;;;;;;;;5113294;28;20261;-76
2022/03/26 01:30:09;;;;;;;23.67;13.30;;;;;;;;;;5112444;28;20351;-75
2022/03/26 01:32:38;;;;;;;26.70;13.00;;;;;;;;;;5113710;28;20235;-75
2022/03/26 01:35:07;;;;;;;24.03;13.27;;;;;;;;;;5113272;28;20601;-75
2022/03/26 01:37:35;;;;;;;23.07;12.73;;;;;;;;;;5115058;28;20238;-75
2022/03/26 01:40:03;;;;;;;24.17;14.40;;;;;;;;;;5112546;28;20279;-76
2022/03/26 01:42:32;;;;;;;23.90;12.97;;;;;;;;;;5104604;28;20233;-75
2022/03/26 01:45:00;;;;;;;22.10;13.50;;;;;;;;;;5105751;28;20240;-75
2022/03/26 01:47:28;;;;;;;27.40;14.00;;;;;;;;;;5113614;28;20232;-75
2022/03/26 01:49:57;;;;;;;22.43;12.70;;;;;;;;;;5111123;28;20304;-75
2022/03/26 01:52:25;;;;;;;23.23;12.77;;;;;;;;;;5111749;28;20209;-76
2022/03/26 01:54:53;;;;;;;24.77;13.07;;;;;;;;;;5101172;28;20228;-75
2022/03/26 01:57:21;;;;;;;22.37;11.77;;;;;;;;;;5101418;28;20240;-76
2022/03/26 01:59:49;;;;;;;27.40;13.83;;;;;;;;;;5110206;28;20316;-75
2022/03/26 02:02:17;;;;;;;23.27;13.37;;;;;;;;;;5112389;28;20228;-76
2022/03/26 02:04:45;;;;;;;23.97;13.20;;;;;;;;;;5112714;28;20197;-76
2022/03/26 02:07:15;;;;;;;24.30;13.33;;;;;;;;;;5107706;28;20313;-75
2022/03/26 02:09:43;;;;;;;20.30;12.47;;;;;;;;;;5109649;28;20645;-75
2022/03/26 02:12:24;;;;;;;22.23;13.23;;;;;;;;;;5111475;28;20638;-76
2022/03/26 02:14:52;;;;;;;24.53;13.20;;;;;;;;;;5106253;28;20748;-75
2022/03/26 02:17:20;;;;;;;26.73;12.33;;;;;;;;;;5114452;28;20308;-76
2022/03/26 02:19:50;;;;;;;25.30;13.80;;;;;;;;;;5112158;28;20231;-75
2022/03/26 02:22:20;;;;;;;23.17;13.37;;;;;;;;;;5112458;28;20638;-76
2022/03/26 02:24:48;;;;;;;25.63;13.50;;;;;;;;;;5101752;28;20201;-75
2022/03/26 02:27:20;;;;;;;20.77;12.93;;;;;;;;;;5101977;28;20580;-76
2022/03/26 02:29:48;;;;;;;23.63;13.80;;;;;;;;;;5112262;28;20221;-75
2022/03/26 02:32:18;;;;;;;23.10;13.40;;;;;;;;;;5111805;28;20302;-75
2022/03/26 02:34:47;;;;;;;22.23;13.07;;;;;;;;;;5100884;28;20246;-75
2022/03/26 02:37:29;;;;;;;25.53;13.90;;;;;;;;;;5103819;28;20258;-75
2022/03/26 02:39:57;;;;;;;23.37;12.43;;;;;;;;;;5115377;28;20254;-75
2022/03/26 02:42:25;;;;;;;32.53;13.43;;;;;;;;;;5108049;28;20225;-75
2022/03/26 02:44:54;;;;;;;27.97;13.90;;;;;;;;;;5113301;28;20200;-75
2022/03/26 02:47:22;;;;;;;22.10;13.63;;;;;;;;;;5104837;28;20198;-75
2022/03/26 02:49:50;;;;;;;24.90;13.10;;;;;;;;;;5111766;28;20260;-75
2022/03/26 02:52:18;;;;;;;28.43;14.73;;;;;;;;;;5104258;28;20232;-75
2022/03/26 02:54:48;;;;;;;23.80;13.67;;;;;;;;;;5111293;28;20204;-76
2022/03/26 02:57:16;;;;;;;24.57;13.97;;;;;;;;;;5113676;28;20580;-76
2022/03/26 02:59:44;;;;;;;27.80;13.87;;;;;;;;;;5112577;28;20225;-75
2022/03/26 03:02:12;;;;;;;27.83;14.70;;;;;;;;;;5115268;28;20283;-75
2022/03/26 03:04:41;;;;;;;28.93;14.57;;;;;;;;;;5111314;28;20197;-75
2022/03/26 03:07:09;;;;;;;24.60;14.30;;;;;;;;;;5111608;28;20312;-75
2022/03/26 03:09:37;;;;;;;27.37;15.57;;;;;;;;;;5112273;28;20309;-75
2022/03/26 03:12:07;;;;;;;24.73;16.70;;;;;;;;;;5114039;28;20269;-75
2022/03/26 03:14:35;;;;;;;25.53;14.77;;;;;;;;;;5115015;28;20209;-75
2022/03/26 03:17:03;;;;;;;28.23;15.50;;;;;;;;;;5117968;28;20327;-75
2022/03/26 03:19:31;;;;;;;26.67;16.17;;;;;;;;;;5114609;28;20770;-75
2022/03/26 03:21:59;;;;;;;28.73;15.80;;;;;;;;;;5111974;28;20285;-75
2022/03/26 03:24:27;;;;;;;24.73;14.93;;;;;;;;;;5106746;28;20228;-75
2022/03/26 03:26:55;;;;;;;29.77;15.40;;;;;;;;;;5108944;28;20245;-75
2022/03/26 03:29:24;;;;;;;23.63;14.50;;;;;;;;;;5114101;28;20202;-75
2022/03/26 03:31:52;;;;;;;25.77;14.70;;;;;;;;;;5114788;28;20314;-75
2022/03/26 03:34:20;;;;;;;24.20;15.63;;;;;;;;;;5115327;28;20580;-76
2022/03/26 03:36:48;;;;;;;26.60;15.93;;;;;;;;;;5113967;28;20675;-75
2022/03/26 03:39:16;;;;;;;26.93;15.77;;;;;;;;;;5114920;28;20229;-75
2022/03/26 03:41:44;;;;;;;26.00;15.80;;;;;;;;;;5114518;28;20232;-75
2022/03/26 03:44:13;;;;;;;26.90;15.23;;;;;;;;;;5107331;28;20275;-75
2022/03/26 03:46:42;;;;;;;28.80;15.63;;;;;;;;;;5107776;28;20249;-75
2022/03/26 03:49:11;;;;;;;27.60;16.63;;;;;;;;;;5111859;28;20201;-75
2022/03/26 03:51:39;;;;;;;30.20;16.70;;;;;;;;;;5104425;28;20286;-75
2022/03/26 03:54:08;;;;;;;25.53;15.83;;;;;;;;;;5109407;28;20244;-75
2022/03/26 03:56:36;;;;;;;27.47;16.87;;;;;;;;;;5107761;28;20223;-75
2022/03/26 03:59:04;;;;;;;32.63;18.37;;;;;;;;;;5113980;28;20293;-76
2022/03/26 04:01:33;;;;;;;27.57;17.13;;;;;;;;;;5103410;28;20232;-75
2022/03/26 04:04:03;;;;;;;25.73;16.97;;;;;;;;;;5105466;28;20224;-75
2022/03/26 04:06:31;;;;;;;24.13;15.50;;;;;;;;;;5111197;28;20252;-75
2022/03/26 04:08:59;;;;;;;33.23;17.13;;;;;;;;;;5110090;28;20224;-75
2022/03/26 04:11:27;;;;;;;29.17;16.23;;;;;;;;;;5103604;28;20256;-75
2022/03/26 04:13:56;;;;;;;27.57;16.90;;;;;;;;;;5109412;28;20197;-75
2022/03/26 04:16:24;;;;;;;23.90;16.37;;;;;;;;;;5117581;28;20256;-76
2022/03/26 04:18:52;;;;;;;26.67;16.50;;;;;;;;;;5111212;28;20259;-75
2022/03/26 04:21:22;;;;;;;25.37;16.90;;;;;;;;;;5110721;28;20239;-75
2022/03/26 04:23:50;;;;;;;25.53;16.20;;;;;;;;;;5113948;28;20197;-75
2022/03/26 04:26:18;;;;;;;25.60;16.67;;;;;;;;;;5114296;28;20248;-76
2022/03/26 04:28:47;;;;;;;26.57;17.20;;;;;;;;;;5106122;28;20288;-75
2022/03/26 04:31:15;;;;;;;25.10;16.40;;;;;;;;;;5107588;28;20268;-75
2022/03/26 04:33:43;;;;;;;25.67;16.57;;;;;;;;;;5111018;28;20262;-76
2022/03/26 04:36:11;;;;;;;26.47;16.87;;;;;;;;;;5103060;28;20312;-75
2022/03/26 04:38:40;;;;;;;25.87;15.93;;;;;;;;;;5109774;28;20240;-75
2022/03/26 04:41:09;;;;;;;30.10;17.47;;;;;;;;;;5101780;28;20221;-76
2022/03/26 04:43:37;;;;;;;28.60;17.27;;;;;;;;;;5105646;28;20280;-75
2022/03/26 04:46:05;;;;;;;29.33;17.73;;;;;;;;;;5108697;28;20222;-76
2022/03/26 04:48:33;;;;;;;24.53;16.53;;;;;;;;;;5102414;28;20237;-75
2022/03/26 04:51:01;;;;;;;25.53;16.27;;;;;;;;;;5109870;28;20308;-76
2022/03/26 04:53:29;;;;;;;28.13;16.27;;;;;;;;;;5114561;28;20236;-76
2022/03/26 04:55:58;;;;;;;24.00;15.93;;;;;;;;;;5111001;28;20285;-75
2022/03/26 04:58:26;;;;;;;25.47;15.03;;;;;;;;;;5108709;28;20264;-75
2022/03/26 05:00:54;;;;;;;26.13;16.10;;;;;;;;;;5114726;28;20193;-75
2022/03/26 05:03:22;;;;;;;27.07;16.30;;;;;;;;;;5111282;28;20209;-75
2022/03/26 05:05:50;;;;;;;26.17;14.90;;;;;;;;;;5111719;28;20623;-75
2022/03/26 05:08:18;;;;;;;23.63;15.33;;;;;;;;;;5106914;28;20265;-75
2022/03/26 05:10:46;;;;;;;27.97;15.83;;;;;;;;;;5113412;28;20308;-75
2022/03/26 05:13:16;;;;;;;27.27;16.23;;;;;;;;;;5113272;28;20276;-75
2022/03/26 05:15:44;;;;;;;24.43;16.10;;;;;;;;;;5113285;28;20313;-75
2022/03/26 05:18:13;;;;;;;23.37;16.20;;;;;;;;;;5104526;28;20201;-75
2022/03/26 05:20:41;;;;;;;23.43;15.30;;;;;;;;;;5113801;28;20197;-76
2022/03/26 05:23:09;;;;;;;26.10;15.80;;;;;;;;;;5101755;28;20208;-75
2022/03/26 05:25:37;;;;;;;24.67;14.23;;;;;;;;;;5114517;27;20260;-75
2022/03/26 05:28:05;;;;;;;25.60;16.33;;;;;;;;;;5115017;28;20292;-75
2022/03/26 05:30:35;;;;;;;27.10;15.87;;;;;;;;;;5116139;28;20197;-75
2022/03/26 05:33:03;;;;;;;30.67;16.03;;;;;;;;;;5111145;28;20232;-75
2022/03/26 05:35:31;;;;;;;27.30;14.80;;;;;;;;;;5113578;28;20259;-75
2022/03/26 05:38:00;;;;;;;26.67;14.47;;;;;;;;;;5116569;28;20287;-75
2022/03/26 05:40:28;;;;;;;24.77;15.37;;;;;;;;;;5114377;28;20197;-75
2022/03/26 05:42:56;;;;;;;25.97;15.50;;;;;;;;;;5116947;28;20623;-75
2022/03/26 05:45:24;;;;;;;24.57;15.57;;;;;;;;;;5111231;28;20311;-76
2022/03/26 05:47:56;;;;;;;26.80;14.63;;;;;;;;;;5113470;28;20232;-75
2022/03/26 05:50:24;;;;;;;27.43;16.10;;;;;;;;;;5111841;28;20260;-75
2022/03/26 05:52:52;;;;;;;24.57;14.60;;;;;;;;;;5115710;28;20256;-76
2022/03/26 05:55:20;;;;;;;24.10;15.47;;;;;;;;;;5115467;28;20707;-75
2022/03/26 05:57:48;;;;;;;26.37;14.83;;;;;;;;;;5113760;28;20240;-76
2022/03/26 06:00:17;;;;;;;24.90;15.93;;;;;;;;;;5110582;28;20315;-75
2022/03/26 06:02:45;;;;;;;22.77;15.27;;;;;;;;;;5114418;28;20219;-75
2022/03/26 06:05:14;;;;;;;23.80;15.43;;;;;;;;;;5114739;28;20235;-76
2022/03/26 06:07:42;;;;;;;29.27;20.10;;;;;;;;;;5112228;28;20279;-76
2022/03/26 06:10:10;;;;;;;31.83;20.03;;;;;;;;;;5114459;28;20231;-75
2022/03/26 06:12:44;;;;;;;28.03;17.50;;;;;;;;;;5116516;28;20273;-76
2022/03/26 06:15:12;;;;;;;25.73;16.50;;;;;;;;;;5118858;28;20286;-75
2022/03/26 06:18:00;;;;;;;26.60;14.00;;;;;;;;;;5118438;28;20201;-75
2022/03/26 06:20:29;;;;;;;28.50;17.87;;;;;;;;;;5115035;28;20292;-75
2022/03/26 06:22:57;;;;;;;25.77;18.37;;;;;;;;;;5113896;28;20193;-75
2022/03/26 06:25:31;;;;;;;24.43;16.20;;;;;;;;;;5112730;28;20213;-75
2022/03/26 06:27:59;;;;;;;22.97;14.63;;;;;;;;;;5114985;28;20738;-76
2022/03/26 06:30:27;;;;;;;23.80;14.57;;;;;;;;;;5117001;28;20280;-77
2022/03/26 06:32:55;;;;;;;29.10;18.17;;;;;;;;;;5116954;28;20260;-77
2022/03/26 06:35:24;;;;;;;26.27;17.60;;;;;;;;;;5118390;28;20223;-77
2022/03/26 06:37:54;;;;;;;29.40;18.13;;;;;;;;;;5118323;28;20228;-77
2022/03/26 06:40:22;;;;;;;25.63;15.53;;;;;;;;;;5119232;28;20283;-77
2022/03/26 06:42:50;;;;;;;25.33;15.47;;;;;;;;;;5118084;28;20230;-78
2022/03/26 06:45:18;;;;;;;25.83;16.77;;;;;;;;;;5119524;28;20229;-77
2022/03/26 06:47:46;;;;;;;24.30;15.63;;;;;;;;;;5119267;28;20201;-77
2022/03/26 06:50:14;;;;;;;24.87;16.60;;;;;;;;;;5118653;28;20284;-77
2022/03/26 06:52:42;;;;;;;27.20;16.97;;;;;;;;;;5111563;28;20625;-76
2022/03/26 06:55:12;;;;;;;25.00;15.57;;;;;;;;;;5110817;28;20296;-77
2022/03/26 06:57:41;;;;;;;24.47;15.57;;;;;;;;;;5116226;28;20727;-77
2022/03/26 07:00:11;;;;;;;33.50;17.00;;;;;;;;;;5112132;28;20237;-76
2022/03/26 07:02:39;;;;;;;29.10;16.03;;;;;;;;;;5115047;28;20645;-77
2022/03/26 07:05:08;;;;;;;29.53;18.03;;;;;;;;;;5109167;28;20243;-77
2022/03/26 07:07:36;;;;;;;31.50;17.23;;;;;;;;;;5106246;28;20221;-79
2022/03/26 07:10:05;;;;;;;31.57;18.37;;;;;;;;;;5114718;27;20201;-79
2022/03/26 07:12:34;;;;;;;24.63;16.13;;;;;;;;;;5104784;27;20264;-79
2022/03/26 07:15:03;;;;;;;25.03;16.07;;;;;;;;;;5111140;28;20238;-79
2022/03/26 07:17:31;;;;;;;31.20;17.70;;;;;;;;;;5112273;28;20231;-79
2022/03/26 07:19:59;;;;;;;30.27;17.33;;;;;;;;;;5109362;28;20265;-79
2022/03/26 07:22:31;;;;;;;24.70;16.60;;;;;;;;;;5104125;28;20259;-78
2022/03/26 07:24:59;;;;;;;29.03;18.67;;;;;;;;;;5103698;28;20262;-79
2022/03/26 07:27:30;;;;;;;29.23;18.83;;;;;;;;;;5112217;28;20232;-78
2022/03/26 07:29:59;;;;;;;29.57;17.07;;;;;;;;;;5109647;27;20311;-78
2022/03/26 07:32:27;;;;;;;27.97;17.27;;;;;;;;;;5119148;28;20300;-78
2022/03/26 07:34:56;;;;;;;26.10;17.70;;;;;;;;;;5112758;28;20237;-78
2022/03/26 07:37:24;;;;;;;31.40;18.87;;;;;;;;;;5119911;28;20197;-78
2022/03/26 07:39:52;;;;;;;29.90;18.57;;;;;;;;;;5107058;28;20230;-78
2022/03/26 07:42:20;;;;;;;29.87;18.73;;;;;;;;;;5109095;28;20219;-76
2022/03/26 07:44:48;;;;;;;32.30;19.63;;;;;;;;;;5112080;28;20228;-76
2022/03/26 07:47:18;;;;;;;34.97;19.57;;;;;;;;;;5115777;28;20220;-77
2022/03/26 07:49:46;;;;;;;37.93;19.87;;;;;;;;;;5115433;28;20268;-76
2022/03/26 07:52:14;;;;;;;33.73;20.17;;;;;;;;;;5108301;28;20255;-76
2022/03/26 07:54:42;;;;;;;36.90;21.83;;;;;;;;;;5114022;28;20281;-77
2022/03/26 07:57:10;;;;;;;30.57;19.50;;;;;;;;;;5114133;28;20259;-77
2022/03/26 07:59:38;;;;;;;27.50;18.97;;;;;;;;;;5114041;28;20247;-78
2022/03/26 08:02:06;;;;;;;35.20;19.83;;;;;;;;;;5114481;28;20628;-77
2022/03/26 08:04:36;;;;;;;31.93;20.37;;;;;;;;;;5120001;28;20201;-78
2022/03/26 08:07:04;;;;;;;31.17;20.73;;;;;;;;;;5111772;28;20244;-78
2022/03/26 08:09:32;;;;;;;27.43;19.37;;;;;;;;;;5114498;28;20228;-78
2022/03/26 08:12:00;;;;;;;33.27;19.83;;;;;;;;;;5110981;28;20224;-78
2022/03/26 08:14:29;;;;;;;29.80;17.93;;;;;;;;;;5102928;28;20248;-78
2022/03/26 08:16:57;;;;;;;27.73;19.40;;;;;;;;;;5102773;28;20309;-78
2022/03/26 08:19:25;;;;;;;30.23;19.50;;;;;;;;;;5113420;28;20201;-78
2022/03/26 08:21:54;;;;;;;30.37;19.07;;;;;;;;;;5119598;28;20233;-78
2022/03/26 08:24:22;;;;;;;35.23;19.63;;;;;;;;;;5119566;28;20236;-76
2022/03/26 08:26:50;;;;;;;34.07;20.53;;;;;;;;;;5119294;28;20307;-76
2022/03/26 08:29:19;;;;;;;32.50;20.67;;;;;;;;;;5117710;28;20209;-76
2022/03/26 08:31:50;;;;;;;37.60;18.43;;;;;;;;;;5104574;28;20193;-75
2022/03/26 08:34:21;;;;;;;34.70;20.33;;;;;;;;;;5104488;28;20242;-74
2022/03/26 08:36:49;;;;;;;33.73;19.37;;;;;;;;;;5112907;28;20303;-75
2022/03/26 08:39:18;;;;;;;32.30;19.23;;;;;;;;;;5117254;28;20304;-75
2022/03/26 08:41:46;;;;;;;32.93;19.87;;;;;;;;;;5098791;28;20672;-75
2022/03/26 08:44:14;;;;;;;34.03;19.10;;;;;;;;;;5109948;28;20626;-74
2022/03/26 08:46:42;;;;;;;38.20;19.70;;;;;;;;;;5109529;28;20268;-74
2022/03/26 08:49:10;;;;;;;36.50;19.90;;;;;;;;;;5118391;27;20223;-78
2022/03/26 08:51:38;;;;;;;35.43;19.77;;;;;;;;;;5113313;28;20628;-75
2022/03/26 08:54:06;;;;;;;33.80;19.60;;;;;;;;;;5110901;28;20662;-76
2022/03/26 08:56:36;;;;;;;36.00;20.27;;;;;;;;;;5114213;28;20216;-73
2022/03/26 08:59:04;;;;;;;39.90;21.30;;;;;;;;;;5115387;28;20299;-75
2022/03/26 09:01:32;;;;;;;37.23;20.63;;;;;;;;;;5115585;28;20276;-72
2022/03/26 09:04:00;;;;;;;41.57;21.00;;;;;;;;;;5116515;28;20253;-74
2022/03/26 09:06:29;;;;;;;37.13;20.13;;;;;;;;;;5109904;28;20267;-74
2022/03/26 09:08:58;;;;;;;38.60;20.30;;;;;;;;;;5109910;28;20268;-76
2022/03/26 09:11:26;;;;;;;33.63;20.73;;;;;;;;;;5115296;28;20204;-79
2022/03/26 09:13:55;;;;;;;39.47;21.33;;;;;;;;;;5114546;28;20235;-79
2022/03/26 09:16:23;;;;;;;39.57;21.70;;;;;;;;;;5115542;28;20303;-73
2022/03/26 09:18:52;;;;;;;35.93;22.03;;;;;;;;;;5110225;28;20213;-73
2022/03/26 09:21:20;;;;;;;36.57;21.43;;;;;;;;;;5114521;28;20614;-72
2022/03/26 09:23:47;;;;;;;39.60;22.73;;;;;;;;;;5107087;28;20264;-72
2022/03/26 09:26:15;;;;;;;38.77;22.40;;;;;;;;;;5112519;28;20654;-72
2022/03/26 09:28:45;;;;;;;36.93;22.30;;;;;;;;;;5111031;28;20201;-72
2022/03/26 09:31:14;;;;;;;39.73;22.67;;;;;;;;;;5107194;28;20216;-72
2022/03/26 09:33:43;;;;;;;39.00;23.63;;;;;;;;;;5111590;28;20216;-75
2022/03/26 09:36:11;;;;;;;43.83;24.27;;;;;;;;;;5116040;28;20308;-75
2022/03/26 09:38:39;;;;;;;41.87;22.60;;;;;;;;;;5116016;28;20649;-75
2022/03/26 09:41:08;;;;;;;43.53;23.33;;;;;;;;;;5116469;28;20284;-75
2022/03/26 09:43:39;;;;;;;39.07;22.77;;;;;;;;;;5116152;28;20238;-75
2022/03/26 09:46:07;;;;;;;40.40;23.20;;;;;;;;;;5108105;28;20220;-75
2022/03/26 09:48:38;;;;;;;44.73;23.73;;;;;;;;;;5103173;28;20569;-75
2022/03/26 09:51:06;;;;;;;44.27;23.30;;;;;;;;;;5109456;28;20246;-74
2022/03/26 09:53:34;;;;;;;45.33;24.50;;;;;;;;;;5104225;28;20249;-72
2022/03/26 09:56:03;;;;;;;41.10;23.47;;;;;;;;;;5108487;28;20252;-72
2022/03/26 09:58:31;;;;;;;48.70;25.70;;;;;;;;;;5110941;28;20261;-74
2022/03/26 10:00:59;;;;;;;51.93;24.80;;;;;;;;;;5109138;28;20735;-73
2022/03/26 10:03:27;;;;;;;46.13;23.17;;;;;;;;;;5105223;28;20189;-73
2022/03/26 10:06:03;;;;;;;52.27;26.17;;;;;;;;;;5110292;28;20220;-74
2022/03/26 10:08:35;;;;;;;45.63;24.40;;;;;;;;;;5112266;28;20203;-74
2022/03/26 10:11:03;;;;;;;46.80;25.13;;;;;;;;;;5107045;28;20258;-75
2022/03/26 10:13:38;;;;;;;45.37;24.63;;;;;;;;;;5112083;28;20299;-74
2022/03/26 10:16:07;;;;;;;49.17;25.17;;;;;;;;;;5113910;28;20303;-74
2022/03/26 10:18:36;;;;;;;45.30;24.73;;;;;;;;;;5106875;28;20200;-74
2022/03/26 10:21:08;;;;;;;46.77;25.00;;;;;;;;;;5116329;28;20201;-72
2022/03/26 10:23:36;;;;;;;46.60;24.57;;;;;;;;;;5116603;28;20695;-73
2022/03/26 10:26:09;;;;;;;48.80;25.07;;;;;;;;;;5105769;28;20785;-73
2022/03/26 10:28:37;;;;;;;45.73;25.10;;;;;;;;;;5098478;28;20277;-72
2022/03/26 10:34:06;;;;;;;40.63;22.43;;;;;;;;;;5098261;28;20225;-75
2022/03/26 10:36:40;;;;;;;44.13;23.57;;;;;;;;;;5114602;28;20216;-74
2022/03/26 10:39:14;;;;;;;43.23;22.43;;;;;;;;;;5116137;28;20292;-74
2022/03/26 10:41:42;;;;;;;37.07;21.30;;;;;;;;;;5105598;28;20197;-75
2022/03/26 10:44:12;;;;;;;39.73;22.20;;;;;;;;;;5100743;28;20736;-75
2022/03/26 10:46:44;;;;;;;41.07;21.63;;;;;;;;;;5101069;28;20289;-75
2022/03/26 10:49:12;;;;;;;38.73;21.13;;;;;;;;;;5114028;28;20234;-75
2022/03/26 10:51:42;;;;;;;38.67;21.73;;;;;;;;;;5101894;28;20664;-75
2022/03/26 10:54:11;;;;;;;51.43;24.50;;;;;;;;;;5109380;28;20255;-75
2022/03/26 10:56:40;;;;;;;42.93;21.83;;;;;;;;;;5108750;28;20783;-74
2022/03/26 10:59:09;;;;;;;41.07;22.10;;;;;;;;;;5108073;28;20228;-74
2022/03/26 11:01:37;;;;;;;37.33;22.00;;;;;;;;;;5120461;28;20281;-74
2022/03/26 11:04:05;;;;;;;40.87;22.53;;;;;;;;;;5106589;28;20709;-74
2022/03/26 11:06:38;;;;;;;50.40;24.40;;;;;;;;;;5110022;28;20217;-74
2022/03/26 11:09:08;;;;;;;36.33;21.43;;;;;;;;;;5103557;28;20624;-73
2022/03/26 11:11:37;;;;;;;45.77;22.10;;;;;;;;;;5103827;28;20621;-73
2022/03/26 11:14:08;;;;;;;42.93;21.77;;;;;;;;;;5108808;28;20257;-74
2022/03/26 11:16:42;;;;;;;42.50;22.77;;;;;;;;;;5110167;28;20340;-74
2022/03/26 11:19:16;;;;;;;40.20;21.30;;;;;;;;;;5109435;28;20231;-74
2022/03/26 11:22:12;;;;;;;38.53;21.47;;;;;;;;;;5107786;28;20289;-74
2022/03/26 11:24:59;;;;;;;42.13;23.50;;;;;;;;;;5108598;28;20649;-74
2022/03/26 11:27:39;;;;;;;39.53;22.73;;;;;;;;;;5117026;28;20285;-73
2022/03/26 11:30:14;;;;;;;44.93;22.83;;;;;;;;;;5107360;28;20201;-73
2022/03/26 11:32:44;;;;;;;39.37;21.63;;;;;;;;;;5110336;28;20203;-72
2022/03/26 11:35:14;;;;;;;40.33;21.30;;;;;;;;;;5108617;28;20703;-73
2022/03/26 11:38:01;;;;;;;39.23;20.10;;;;;;;;;;5115107;28;20283;-73
2022/03/26 11:40:41;;;;;;;35.67;20.33;;;;;;;;;;5109412;28;20289;-74
2022/03/26 11:43:11;;;;;;;37.50;20.23;;;;;;;;;;5111725;28;20236;-74
2022/03/26 11:51:22;;;;;;;39.47;21.37;;;;;;;;;;5111863;28;20240;-74
2022/03/26 11:53:56;;;;;;;36.87;20.70;;;;;;;;;;5114177;28;20672;-73
2022/03/26 11:56:25;;;;;;;39.17;21.03;;;;;;;;;;5107860;28;20308;-74
2022/03/26 11:59:25;;;;;;;43.87;20.77;;;;;;;;;;5103281;28;20312;-74
2022/03/26 12:01:54;;;;;;;38.07;20.43;;;;;;;;;;5112565;28;20201;-74
2022/03/26 12:04:25;;;;;;;35.20;19.47;;;;;;;;;;5118834;28;20200;-73
2022/03/26 12:06:56;;;;;;;45.47;21.50;;;;;;;;;;5104249;28;20263;-75
2022/03/26 12:09:29;;;;;;;41.77;20.67;;;;;;;;;;5105900;28;20279;-74
2022/03/26 12:12:21;;;;;;;37.47;19.13;;;;;;;;;;5110789;28;20229;-74
2022/03/26 12:15:08;;;;;;;41.03;20.87;;;;;;;;;;5103465;28;20221;-75
2022/03/26 12:17:45;;;;;;;38.60;20.37;;;;;;;;;;5110172;28;20284;-74
2022/03/26 12:20:20;;;;;;;37.50;20.80;;;;;;;;;;5111486;28;20201;-73
2022/03/26 12:22:49;;;;;;;44.30;21.70;;;;;;;;;;5114092;28;20292;-73
2022/03/26 12:25:18;;;;;;;38.07;19.80;;;;;;;;;;5103885;28;20248;-73
2022/03/26 12:27:46;;;;;;;40.90;21.60;;;;;;;;;;5109972;28;20280;-75
2022/03/26 12:30:14;;;;;;;38.73;20.73;;;;;;;;;;5108043;28;20635;-75
2022/03/26 12:32:43;;;;;;;38.63;21.63;;;;;;;;;;5103352;28;20233;-75
2022/03/26 12:35:12;;;;;;;43.87;21.13;;;;;;;;;;5103349;28;20217;-75
2022/03/26 12:37:41;;;;;;;38.20;20.13;;;;;;;;;;5107372;28;20292;-74
2022/03/26 12:40:12;;;;;;;39.27;20.73;;;;;;;;;;5102718;28;20229;-74
2022/03/26 12:42:40;;;;;;;37.47;19.60;;;;;;;;;;5109813;28;20228;-73
2022/03/26 12:45:13;;;;;;;37.90;19.30;;;;;;;;;;5109937;28;20229;-72
2022/03/26 12:47:45;;;;;;;34.37;18.40;;;;;;;;;;5104874;28;20224;-73
2022/03/26 12:50:17;;;;;;;34.67;17.67;;;;;;;;;;5103600;28;20229;-75
2022/03/26 12:52:45;;;;;;;31.23;18.50;;;;;;;;;;5113286;28;20723;-73
2022/03/26 12:55:13;;;;;;;35.33;18.90;;;;;;;;;;5111103;28;20304;-73
2022/03/26 13:00:28;;;;;;;37.17;20.03;;;;;;;;;;5108871;28;20288;-73
2022/03/26 13:03:03;;;;;;;34.27;18.70;;;;;;;;;;5112930;28;20197;-74
2022/03/26 13:05:33;;;;;;;42.47;21.00;;;;;;;;;;5104922;28;20209;-73
2022/03/26 13:08:02;;;;;;;36.67;19.63;;;;;;;;;;5105965;28;20201;-73
2022/03/26 13:10:34;;;;;;;33.57;18.37;;;;;;;;;;5107197;28;20307;-73
2022/03/26 13:13:03;;;;;;;35.47;18.40;;;;;;;;;;5112187;28;20204;-73
2022/03/26 13:15:31;;;;;;;29.80;17.80;;;;;;;;;;5112302;28;20778;-73
2022/03/26 13:18:01;;;;;;;36.27;18.23;;;;;;;;;;5113455;28;20229;-73
2022/03/26 13:20:30;;;;;;;38.30;19.73;;;;;;;;;;5116187;28;20280;-73
2022/03/26 13:23:01;;;;;;;36.57;19.00;;;;;;;;;;5110017;28;20285;-73
2022/03/26 13:25:34;;;;;;;38.53;21.07;;;;;;;;;;5104377;28;20280;-73
2022/03/26 13:28:17;;;;;;;35.97;19.50;;;;;;;;;;5101480;28;20236;-73
2022/03/26 13:30:46;;;;;;;36.33;18.80;;;;;;;;;;5109366;28;20232;-75
2022/03/26 13:33:17;;;;;;;37.20;19.63;;;;;;;;;;5112393;28;20265;-75
2022/03/26 13:35:50;;;;;;;35.93;19.30;;;;;;;;;;5102295;28;20263;-75
2022/03/26 13:38:19;;;;;;;32.97;17.93;;;;;;;;;;5101418;28;20284;-75
2022/03/26 13:40:47;;;;;;;40.10;19.77;;;;;;;;;;5110503;28;20284;-75
2022/03/26 13:43:15;;;;;;;40.83;20.70;;;;;;;;;;5106297;28;20225;-75
2022/03/26 13:45:44;;;;;;;38.30;19.20;;;;;;;;;;5113429;28;20300;-75
2022/03/26 13:48:13;;;;;;;37.53;18.10;;;;;;;;;;5103507;28;20280;-75
2022/03/26 13:50:47;;;;;;;38.93;18.43;;;;;;;;;;5117198;28;20201;-75
2022/03/26 13:53:39;;;;;;;28.60;15.83;;;;;;;;;;5111854;28;20234;-73
2022/03/26 13:56:08;;;;;;;28.60;15.80;;;;;;;;;;5102125;28;20299;-73
2022/03/26 13:58:36;;;;;;;29.33;16.40;;;;;;;;;;5106919;28;20255;-73
2022/03/26 14:01:06;;;;;;;25.13;13.97;;;;;;;;;;5111719;28;20288;-75
2022/03/26 14:03:37;;;;;;;31.13;14.40;;;;;;;;;;5109950;28;20198;-75
2022/03/26 14:06:05;;;;;;;23.53;13.97;;;;;;;;;;5109330;28;20224;-75
2022/03/26 14:08:35;;;;;;;23.70;13.93;;;;;;;;;;5113150;28;20221;-75
2022/03/26 14:11:03;;;;;;;25.70;14.77;;;;;;;;;;5112295;28;20545;-76
2022/03/26 14:13:31;;;;;;;25.83;15.40;;;;;;;;;;5108734;28;20239;-75
2022/03/26 14:15:59;;;;;;;24.90;14.20;;;;;;;;;;5114412;28;20691;-76
2022/03/26 14:18:27;;;;;;;22.87;14.43;;;;;;;;;;5108275;28;20254;-75
2022/03/26 14:20:55;;;;;;;24.70;13.97;;;;;;;;;;5101019;28;20280;-75
2022/03/26 14:23:23;;;;;;;27.80;15.00;;;;;;;;;;5111464;28;20284;-75
2022/03/26 14:25:53;;;;;;;26.90;14.27;;;;;;;;;;5105082;28;20213;-75
2022/03/26 14:28:21;;;;;;;24.13;14.77;;;;;;;;;;5112487;28;20228;-75
2022/03/26 14:30:49;;;;;;;23.50;14.20;;;;;;;;;;5100986;28;20240;-75
2022/03/26 14:33:17;;;;;;;27.10;14.53;;;;;;;;;;5113200;28;20285;-75
2022/03/26 14:35:47;;;;;;;21.07;14.03;;;;;;;;;;5119205;28;20248;-75
2022/03/26 14:38:15;;;;;;;23.23;13.40;;;;;;;;;;5113206;28;20284;-75
2022/03/26 14:40:43;;;;;;;23.53;13.53;;;;;;;;;;5115355;28;20284;-75